sensor_id;sensor_type;location;lat;lon;timestamp;P1;durP1;ratioP1;P2;durP2;ratioP2
35372;SDS011;21476;51.652;7.852;2022-12-18T00:01:56;62.45;;;36.05;;
35372;SDS011;21476;51.652;7.852;2022-12-18T00:04:24;72.60;;;36.38;;
35372;SDS011;21476;51.652;7.852;2022-12-18T00:06:50;73.72;;;38.70;;
35372;SDS011;21476;51.652;7.852;2022-12-18T00:09:16;62.63;;;35.28;;
35372;SDS011;21476;51.652;7.852;2022-12-18T00:11:42;73.00;;;38.20;;
35372;SDS011;21476;51.652;7.852;2022-12-18T00:14:08;69.75;;;36.35;;
35372;SDS011;21476;51.652;7.852;2022-12-18T00:16:35;76.72;;;36.90;;
35372;SDS011;21476;51.652;7.852;2022-12-18T00:19:02;74.40;;;37.55;;
35372;SDS011;21476;51.652;7.852;2022-12-18T00:21:29;67.53;;;36.13;;
35372;SDS011;21476;51.652;7.852;2022-12-18T00:23:56;76.47;;;36.38;;
35372;SDS011;21476;51.652;7.852;2022-12-18T00:26:24;65.15;;;34.42;;
35372;SDS011;21476;51.652;7.852;2022-12-18T00:28:51;74.28;;;36.97;;
35372;SDS011;21476;51.652;7.852;2022-12-18T00:31:19;73.63;;;38.10;;
35372;SDS011;21476;51.652;7.852;2022-12-18T00:33:47;69.82;;;37.20;;
35372;SDS011;21476;51.652;7.852;2022-12-18T00:36:14;70.05;;;36.92;;
35372;SDS011;21476;51.652;7.852;2022-12-18T00:38:47;68.25;;;34.60;;
35372;SDS011;21476;51.652;7.852;2022-12-18T00:41:15;69.85;;;35.38;;
35372;SDS011;21476;51.652;7.852;2022-12-18T00:44:01;73.95;;;35.95;;
35372;SDS011;21476;51.652;7.852;2022-12-18T00:46:28;71.72;;;37.00;;
35372;SDS011;21476;51.652;7.852;2022-12-18T00:48:54;62.58;;;36.45;;
35372;SDS011;21476;51.652;7.852;2022-12-18T00:51:20;71.50;;;36.00;;
35372;SDS011;21476;51.652;7.852;2022-12-18T00:53:45;63.28;;;35.42;;
35372;SDS011;21476;51.652;7.852;2022-12-18T00:56:11;71.95;;;37.15;;
35372;SDS011;21476;51.652;7.852;2022-12-18T00:58:37;77.75;;;37.50;;
35372;SDS011;21476;51.652;7.852;2022-12-18T01:01:06;70.43;;;36.33;;
35372;SDS011;21476;51.652;7.852;2022-12-18T01:03:32;62.55;;;36.05;;
35372;SDS011;21476;51.652;7.852;2022-12-18T01:05:57;68.07;;;34.80;;
35372;SDS011;21476;51.652;7.852;2022-12-18T01:08:23;73.63;;;35.72;;
35372;SDS011;21476;51.652;7.852;2022-12-18T01:10:49;71.82;;;36.15;;
35372;SDS011;21476;51.652;7.852;2022-12-18T01:13:14;67.82;;;35.85;;
35372;SDS011;21476;51.652;7.852;2022-12-18T01:15:40;67.45;;;34.95;;
35372;SDS011;21476;51.652;7.852;2022-12-18T01:18:12;71.20;;;36.58;;
35372;SDS011;21476;51.652;7.852;2022-12-18T01:20:37;66.47;;;34.47;;
35372;SDS011;21476;51.652;7.852;2022-12-18T01:23:03;70.03;;;35.30;;
35372;SDS011;21476;51.652;7.852;2022-12-18T01:25:29;67.65;;;35.55;;
35372;SDS011;21476;51.652;7.852;2022-12-18T01:27:54;69.03;;;37.63;;
35372;SDS011;21476;51.652;7.852;2022-12-18T01:30:20;66.68;;;36.13;;
35372;SDS011;21476;51.652;7.852;2022-12-18T01:32:45;76.90;;;38.60;;
35372;SDS011;21476;51.652;7.852;2022-12-18T01:35:11;67.85;;;34.95;;
35372;SDS011;21476;51.652;7.852;2022-12-18T01:37:37;67.10;;;37.22;;
35372;SDS011;21476;51.652;7.852;2022-12-18T01:40:03;74.25;;;38.17;;
35372;SDS011;21476;51.652;7.852;2022-12-18T01:42:29;79.90;;;38.70;;
35372;SDS011;21476;51.652;7.852;2022-12-18T01:47:30;75.80;;;36.85;;
35372;SDS011;21476;51.652;7.852;2022-12-18T01:50:25;76.50;;;37.10;;
35372;SDS011;21476;51.652;7.852;2022-12-18T01:55:26;72.45;;;35.47;;
35372;SDS011;21476;51.652;7.852;2022-12-18T01:57:56;75.65;;;36.58;;
35372;SDS011;21476;51.652;7.852;2022-12-18T02:00:24;72.05;;;36.67;;
35372;SDS011;21476;51.652;7.852;2022-12-18T02:02:51;68.10;;;37.80;;
35372;SDS011;21476;51.652;7.852;2022-12-18T02:05:19;66.22;;;35.17;;
35372;SDS011;21476;51.652;7.852;2022-12-18T02:13:49;73.88;;;38.50;;
35372;SDS011;21476;51.652;7.852;2022-12-18T02:16:43;69.20;;;34.53;;
35372;SDS011;21476;51.652;7.852;2022-12-18T02:19:16;67.80;;;35.58;;
35372;SDS011;21476;51.652;7.852;2022-12-18T02:24:48;66.68;;;35.20;;
35372;SDS011;21476;51.652;7.852;2022-12-18T02:27:35;60.10;;;33.83;;
35372;SDS011;21476;51.652;7.852;2022-12-18T02:30:03;68.85;;;35.72;;
35372;SDS011;21476;51.652;7.852;2022-12-18T02:32:31;68.22;;;34.35;;
35372;SDS011;21476;51.652;7.852;2022-12-18T02:35:02;67.45;;;35.33;;
35372;SDS011;21476;51.652;7.852;2022-12-18T02:37:31;67.80;;;34.63;;
35372;SDS011;21476;51.652;7.852;2022-12-18T02:39:58;63.85;;;34.58;;
35372;SDS011;21476;51.652;7.852;2022-12-18T02:42:24;65.82;;;34.92;;
35372;SDS011;21476;51.652;7.852;2022-12-18T02:44:51;69.57;;;34.22;;
35372;SDS011;21476;51.652;7.852;2022-12-18T02:47:20;66.55;;;36.08;;
35372;SDS011;21476;51.652;7.852;2022-12-18T02:55:45;64.35;;;34.80;;
35372;SDS011;21476;51.652;7.852;2022-12-18T03:03:57;59.03;;;33.17;;
35372;SDS011;21476;51.652;7.852;2022-12-18T03:06:33;57.90;;;32.20;;
35372;SDS011;21476;51.652;7.852;2022-12-18T03:09:06;60.30;;;32.45;;
35372;SDS011;21476;51.652;7.852;2022-12-18T03:11:34;58.50;;;29.88;;
35372;SDS011;21476;51.652;7.852;2022-12-18T03:14:24;58.42;;;32.28;;
35372;SDS011;21476;51.652;7.852;2022-12-18T03:16:54;60.42;;;31.63;;
35372;SDS011;21476;51.652;7.852;2022-12-18T03:19:24;63.55;;;32.10;;
35372;SDS011;21476;51.652;7.852;2022-12-18T03:21:54;60.08;;;32.15;;
35372;SDS011;21476;51.652;7.852;2022-12-18T03:24:21;58.53;;;30.90;;
35372;SDS011;21476;51.652;7.852;2022-12-18T03:26:50;56.42;;;30.55;;
35372;SDS011;21476;51.652;7.852;2022-12-18T03:29:23;61.72;;;31.30;;
35372;SDS011;21476;51.652;7.852;2022-12-18T03:31:53;61.80;;;32.67;;
35372;SDS011;21476;51.652;7.852;2022-12-18T03:34:26;63.80;;;30.30;;
35372;SDS011;21476;51.652;7.852;2022-12-18T03:39:22;54.60;;;28.92;;
35372;SDS011;21476;51.652;7.852;2022-12-18T03:41:56;53.28;;;29.63;;
35372;SDS011;21476;51.652;7.852;2022-12-18T03:47:13;57.75;;;29.85;;
35372;SDS011;21476;51.652;7.852;2022-12-18T03:52:09;55.63;;;30.63;;
35372;SDS011;21476;51.652;7.852;2022-12-18T03:54:49;55.40;;;28.45;;
35372;SDS011;21476;51.652;7.852;2022-12-18T03:57:18;56.17;;;29.50;;
35372;SDS011;21476;51.652;7.852;2022-12-18T03:59:47;54.92;;;28.52;;
35372;SDS011;21476;51.652;7.852;2022-12-18T04:02:16;55.55;;;29.73;;
35372;SDS011;21476;51.652;7.852;2022-12-18T04:04:42;54.40;;;28.30;;
35372;SDS011;21476;51.652;7.852;2022-12-18T04:07:09;52.70;;;29.25;;
35372;SDS011;21476;51.652;7.852;2022-12-18T04:09:35;59.33;;;27.20;;
35372;SDS011;21476;51.652;7.852;2022-12-18T04:12:03;53.67;;;27.75;;
35372;SDS011;21476;51.652;7.852;2022-12-18T04:14:29;53.00;;;27.98;;
35372;SDS011;21476;51.652;7.852;2022-12-18T04:16:54;55.83;;;27.48;;
35372;SDS011;21476;51.652;7.852;2022-12-18T04:19:20;49.38;;;27.17;;
35372;SDS011;21476;51.652;7.852;2022-12-18T04:21:46;57.65;;;28.15;;
35372;SDS011;21476;51.652;7.852;2022-12-18T04:24:12;55.75;;;28.55;;
35372;SDS011;21476;51.652;7.852;2022-12-18T04:26:37;56.03;;;29.42;;
35372;SDS011;21476;51.652;7.852;2022-12-18T04:29:03;49.92;;;25.98;;
35372;SDS011;21476;51.652;7.852;2022-12-18T04:31:29;53.72;;;29.08;;
35372;SDS011;21476;51.652;7.852;2022-12-18T04:33:54;53.20;;;27.52;;
35372;SDS011;21476;51.652;7.852;2022-12-18T04:36:20;50.63;;;27.17;;
35372;SDS011;21476;51.652;7.852;2022-12-18T04:38:46;58.28;;;27.77;;
35372;SDS011;21476;51.652;7.852;2022-12-18T04:41:11;53.65;;;27.70;;
35372;SDS011;21476;51.652;7.852;2022-12-18T04:43:37;55.03;;;27.20;;
35372;SDS011;21476;51.652;7.852;2022-12-18T04:46:03;50.33;;;26.40;;
35372;SDS011;21476;51.652;7.852;2022-12-18T04:48:30;53.22;;;29.23;;
35372;SDS011;21476;51.652;7.852;2022-12-18T04:50:56;47.67;;;25.90;;
35372;SDS011;21476;51.652;7.852;2022-12-18T04:53:22;48.80;;;27.05;;
35372;SDS011;21476;51.652;7.852;2022-12-18T04:55:47;49.47;;;26.83;;
35372;SDS011;21476;51.652;7.852;2022-12-18T04:58:13;50.58;;;25.05;;
35372;SDS011;21476;51.652;7.852;2022-12-18T05:00:41;45.67;;;24.95;;
35372;SDS011;21476;51.652;7.852;2022-12-18T05:03:07;52.47;;;26.38;;
35372;SDS011;21476;51.652;7.852;2022-12-18T05:05:34;49.53;;;25.52;;
35372;SDS011;21476;51.652;7.852;2022-12-18T05:08:00;46.28;;;24.92;;
35372;SDS011;21476;51.652;7.852;2022-12-18T05:10:26;44.92;;;24.70;;
35372;SDS011;21476;51.652;7.852;2022-12-18T05:12:51;47.70;;;23.40;;
35372;SDS011;21476;51.652;7.852;2022-12-18T05:15:23;49.03;;;25.23;;
35372;SDS011;21476;51.652;7.852;2022-12-18T05:17:57;56.80;;;26.23;;
35372;SDS011;21476;51.652;7.852;2022-12-18T05:20:23;74.50;;;32.00;;
35372;SDS011;21476;51.652;7.852;2022-12-18T05:22:50;44.60;;;24.05;;
35372;SDS011;21476;51.652;7.852;2022-12-18T05:25:16;46.50;;;23.02;;
35372;SDS011;21476;51.652;7.852;2022-12-18T05:27:42;42.83;;;22.48;;
35372;SDS011;21476;51.652;7.852;2022-12-18T05:30:08;39.53;;;20.63;;
35372;SDS011;21476;51.652;7.852;2022-12-18T05:32:35;44.00;;;24.25;;
35372;SDS011;21476;51.652;7.852;2022-12-18T05:35:00;49.25;;;21.92;;
35372;SDS011;21476;51.652;7.852;2022-12-18T05:37:26;42.90;;;21.88;;
35372;SDS011;21476;51.652;7.852;2022-12-18T05:39:52;42.38;;;21.80;;
35372;SDS011;21476;51.652;7.852;2022-12-18T05:42:17;38.35;;;21.75;;
35372;SDS011;21476;51.652;7.852;2022-12-18T05:44:43;36.53;;;21.00;;
35372;SDS011;21476;51.652;7.852;2022-12-18T05:47:09;44.30;;;23.52;;
35372;SDS011;21476;51.652;7.852;2022-12-18T05:49:34;42.47;;;20.60;;
35372;SDS011;21476;51.652;7.852;2022-12-18T05:52:00;37.65;;;20.17;;
35372;SDS011;21476;51.652;7.852;2022-12-18T05:54:28;37.40;;;20.40;;
35372;SDS011;21476;51.652;7.852;2022-12-18T05:56:54;37.58;;;20.08;;
35372;SDS011;21476;51.652;7.852;2022-12-18T05:59:20;40.70;;;21.25;;
35372;SDS011;21476;51.652;7.852;2022-12-18T06:01:46;36.28;;;20.17;;
35372;SDS011;21476;51.652;7.852;2022-12-18T06:04:12;37.55;;;20.55;;
35372;SDS011;21476;51.652;7.852;2022-12-18T06:06:37;33.78;;;18.90;;
35372;SDS011;21476;51.652;7.852;2022-12-18T06:09:03;34.50;;;18.52;;
35372;SDS011;21476;51.652;7.852;2022-12-18T06:11:34;39.20;;;20.50;;
35372;SDS011;21476;51.652;7.852;2022-12-18T06:14:01;45.55;;;21.25;;
35372;SDS011;21476;51.652;7.852;2022-12-18T06:16:28;37.47;;;19.92;;
35372;SDS011;21476;51.652;7.852;2022-12-18T06:18:57;37.97;;;20.52;;
35372;SDS011;21476;51.652;7.852;2022-12-18T06:21:27;41.50;;;19.92;;
35372;SDS011;21476;51.652;7.852;2022-12-18T06:23:53;45.50;;;19.95;;
35372;SDS011;21476;51.652;7.852;2022-12-18T06:26:19;34.28;;;19.27;;
35372;SDS011;21476;51.652;7.852;2022-12-18T06:28:44;42.65;;;20.60;;
35372;SDS011;21476;51.652;7.852;2022-12-18T06:31:10;36.42;;;18.52;;
35372;SDS011;21476;51.652;7.852;2022-12-18T06:33:36;36.08;;;18.60;;
35372;SDS011;21476;51.652;7.852;2022-12-18T06:36:03;35.65;;;18.42;;
35372;SDS011;21476;51.652;7.852;2022-12-18T06:38:35;35.40;;;17.90;;
35372;SDS011;21476;51.652;7.852;2022-12-18T06:41:11;31.15;;;17.25;;
35372;SDS011;21476;51.652;7.852;2022-12-18T06:43:41;30.00;;;17.50;;
35372;SDS011;21476;51.652;7.852;2022-12-18T06:46:07;29.20;;;14.82;;
35372;SDS011;21476;51.652;7.852;2022-12-18T06:48:33;32.97;;;16.77;;
35372;SDS011;21476;51.652;7.852;2022-12-18T06:50:59;39.03;;;17.58;;
35372;SDS011;21476;51.652;7.852;2022-12-18T06:53:25;32.28;;;16.48;;
35372;SDS011;21476;51.652;7.852;2022-12-18T06:55:50;31.77;;;16.83;;
35372;SDS011;21476;51.652;7.852;2022-12-18T06:58:16;28.25;;;16.17;;
35372;SDS011;21476;51.652;7.852;2022-12-18T07:00:42;34.40;;;17.63;;
35372;SDS011;21476;51.652;7.852;2022-12-18T07:03:08;34.50;;;17.67;;
35372;SDS011;21476;51.652;7.852;2022-12-18T07:05:34;29.80;;;15.63;;
35372;SDS011;21476;51.652;7.852;2022-12-18T07:08:04;29.60;;;15.45;;
35372;SDS011;21476;51.652;7.852;2022-12-18T07:10:30;25.58;;;15.60;;
35372;SDS011;21476;51.652;7.852;2022-12-18T07:12:55;31.77;;;16.70;;
35372;SDS011;21476;51.652;7.852;2022-12-18T07:15:21;34.88;;;16.80;;
35372;SDS011;21476;51.652;7.852;2022-12-18T07:17:46;35.67;;;17.77;;
35372;SDS011;21476;51.652;7.852;2022-12-18T07:20:12;30.80;;;17.27;;
35372;SDS011;21476;51.652;7.852;2022-12-18T07:22:38;32.50;;;15.32;;
35372;SDS011;21476;51.652;7.852;2022-12-18T07:25:03;29.73;;;17.30;;
35372;SDS011;21476;51.652;7.852;2022-12-18T07:27:29;26.45;;;15.30;;
35372;SDS011;21476;51.652;7.852;2022-12-18T07:29:55;24.75;;;15.00;;
35372;SDS011;21476;51.652;7.852;2022-12-18T07:32:20;29.08;;;16.27;;
35372;SDS011;21476;51.652;7.852;2022-12-18T07:34:46;28.33;;;16.20;;
35372;SDS011;21476;51.652;7.852;2022-12-18T07:37:12;28.80;;;15.77;;
35372;SDS011;21476;51.652;7.852;2022-12-18T07:39:37;31.67;;;16.38;;
35372;SDS011;21476;51.652;7.852;2022-12-18T07:42:03;32.55;;;17.85;;
35372;SDS011;21476;51.652;7.852;2022-12-18T07:44:47;30.50;;;16.17;;
35372;SDS011;21476;51.652;7.852;2022-12-18T07:47:12;28.38;;;15.52;;
35372;SDS011;21476;51.652;7.852;2022-12-18T07:49:38;28.52;;;15.65;;
35372;SDS011;21476;51.652;7.852;2022-12-18T07:52:04;30.02;;;15.63;;
35372;SDS011;21476;51.652;7.852;2022-12-18T07:54:29;26.23;;;15.40;;
35372;SDS011;21476;51.652;7.852;2022-12-18T07:56:55;31.48;;;16.88;;
35372;SDS011;21476;51.652;7.852;2022-12-18T07:59:21;25.85;;;14.52;;
35372;SDS011;21476;51.652;7.852;2022-12-18T08:01:46;27.00;;;16.30;;
35372;SDS011;21476;51.652;7.852;2022-12-18T08:04:12;26.30;;;14.63;;
35372;SDS011;21476;51.652;7.852;2022-12-18T08:06:37;27.55;;;14.20;;
35372;SDS011;21476;51.652;7.852;2022-12-18T08:09:03;31.88;;;16.25;;
35372;SDS011;21476;51.652;7.852;2022-12-18T08:11:29;31.38;;;16.42;;
35372;SDS011;21476;51.652;7.852;2022-12-18T08:13:55;25.83;;;15.73;;
35372;SDS011;21476;51.652;7.852;2022-12-18T08:16:21;28.73;;;15.02;;
35372;SDS011;21476;51.652;7.852;2022-12-18T08:18:47;23.65;;;13.45;;
35372;SDS011;21476;51.652;7.852;2022-12-18T08:21:14;24.10;;;13.30;;
35372;SDS011;21476;51.652;7.852;2022-12-18T08:23:40;26.00;;;14.05;;
35372;SDS011;21476;51.652;7.852;2022-12-18T08:26:06;22.83;;;13.88;;
35372;SDS011;21476;51.652;7.852;2022-12-18T08:28:31;27.70;;;13.88;;
35372;SDS011;21476;51.652;7.852;2022-12-18T08:30:57;24.35;;;13.70;;
35372;SDS011;21476;51.652;7.852;2022-12-18T08:33:23;24.48;;;13.50;;
35372;SDS011;21476;51.652;7.852;2022-12-18T08:35:48;21.30;;;12.57;;
35372;SDS011;21476;51.652;7.852;2022-12-18T08:38:14;22.33;;;12.55;;
35372;SDS011;21476;51.652;7.852;2022-12-18T08:40:39;26.30;;;13.30;;
35372;SDS011;21476;51.652;7.852;2022-12-18T08:43:05;24.88;;;14.13;;
35372;SDS011;21476;51.652;7.852;2022-12-18T08:45:50;30.13;;;17.73;;
35372;SDS011;21476;51.652;7.852;2022-12-18T08:48:16;31.42;;;19.15;;
35372;SDS011;21476;51.652;7.852;2022-12-18T08:50:41;33.63;;;17.73;;
35372;SDS011;21476;51.652;7.852;2022-12-18T08:53:07;32.17;;;19.85;;
35372;SDS011;21476;51.652;7.852;2022-12-18T08:55:33;32.67;;;18.00;;
35372;SDS011;21476;51.652;7.852;2022-12-18T08:57:58;31.92;;;17.65;;
35372;SDS011;21476;51.652;7.852;2022-12-18T09:00:24;24.77;;;12.85;;
35372;SDS011;21476;51.652;7.852;2022-12-18T09:02:49;24.33;;;12.43;;
35372;SDS011;21476;51.652;7.852;2022-12-18T09:05:15;24.45;;;14.18;;
35372;SDS011;21476;51.652;7.852;2022-12-18T09:07:41;22.77;;;12.52;;
35372;SDS011;21476;51.652;7.852;2022-12-18T09:10:06;21.00;;;12.05;;
35372;SDS011;21476;51.652;7.852;2022-12-18T09:12:32;20.55;;;11.07;;
35372;SDS011;21476;51.652;7.852;2022-12-18T09:14:58;18.48;;;10.57;;
35372;SDS011;21476;51.652;7.852;2022-12-18T09:17:24;21.10;;;11.43;;
35372;SDS011;21476;51.652;7.852;2022-12-18T09:19:50;19.60;;;11.68;;
35372;SDS011;21476;51.652;7.852;2022-12-18T09:22:15;18.98;;;10.88;;
35372;SDS011;21476;51.652;7.852;2022-12-18T09:24:41;21.88;;;12.80;;
35372;SDS011;21476;51.652;7.852;2022-12-18T09:27:07;18.33;;;11.18;;
35372;SDS011;21476;51.652;7.852;2022-12-18T09:29:32;20.23;;;10.25;;
35372;SDS011;21476;51.652;7.852;2022-12-18T09:31:58;16.45;;;10.00;;
35372;SDS011;21476;51.652;7.852;2022-12-18T09:34:23;16.83;;;10.43;;
35372;SDS011;21476;51.652;7.852;2022-12-18T09:36:49;17.85;;;10.50;;
35372;SDS011;21476;51.652;7.852;2022-12-18T09:39:15;17.25;;;10.20;;
35372;SDS011;21476;51.652;7.852;2022-12-18T09:41:50;17.13;;;10.40;;
35372;SDS011;21476;51.652;7.852;2022-12-18T09:46:59;18.08;;;10.52;;
35372;SDS011;21476;51.652;7.852;2022-12-18T09:49:30;21.00;;;12.25;;
35372;SDS011;21476;51.652;7.852;2022-12-18T09:52:22;16.83;;;10.20;;
35372;SDS011;21476;51.652;7.852;2022-12-18T09:57:55;16.50;;;9.25;;
35372;SDS011;21476;51.652;7.852;2022-12-18T10:00:24;16.40;;;9.65;;
35372;SDS011;21476;51.652;7.852;2022-12-18T10:02:56;13.98;;;9.05;;
35372;SDS011;21476;51.652;7.852;2022-12-18T10:05:40;13.75;;;8.57;;
35372;SDS011;21476;51.652;7.852;2022-12-18T10:22:47;12.50;;;7.45;;
35372;SDS011;21476;51.652;7.852;2022-12-18T10:25:22;13.27;;;7.43;;
35372;SDS011;21476;51.652;7.852;2022-12-18T10:28:17;16.15;;;7.88;;
35372;SDS011;21476;51.652;7.852;2022-12-18T10:30:44;14.45;;;8.73;;
35372;SDS011;21476;51.652;7.852;2022-12-18T10:33:20;19.50;;;8.35;;
35372;SDS011;21476;51.652;7.852;2022-12-18T10:35:48;13.68;;;7.40;;
35372;SDS011;21476;51.652;7.852;2022-12-18T10:43:14;14.57;;;8.00;;
35372;SDS011;21476;51.652;7.852;2022-12-18T10:45:41;15.82;;;8.15;;
35372;SDS011;21476;51.652;7.852;2022-12-18T10:48:18;17.30;;;8.73;;
35372;SDS011;21476;51.652;7.852;2022-12-18T10:50:46;16.95;;;8.73;;
35372;SDS011;21476;51.652;7.852;2022-12-18T10:53:19;14.85;;;8.13;;
35372;SDS011;21476;51.652;7.852;2022-12-18T10:55:47;18.13;;;7.95;;
35372;SDS011;21476;51.652;7.852;2022-12-18T11:01:07;12.38;;;7.53;;
35372;SDS011;21476;51.652;7.852;2022-12-18T11:06:13;18.20;;;7.72;;
35372;SDS011;21476;51.652;7.852;2022-12-18T11:08:40;15.40;;;8.48;;
35372;SDS011;21476;51.652;7.852;2022-12-18T11:11:41;16.20;;;8.32;;
35372;SDS011;21476;51.652;7.852;2022-12-18T11:14:12;15.27;;;8.48;;
35372;SDS011;21476;51.652;7.852;2022-12-18T11:16:44;16.08;;;8.35;;
35372;SDS011;21476;51.652;7.852;2022-12-18T11:21:46;15.52;;;8.38;;
35372;SDS011;21476;51.652;7.852;2022-12-18T11:24:17;14.25;;;8.05;;
35372;SDS011;21476;51.652;7.852;2022-12-18T11:26:57;15.20;;;7.90;;
35372;SDS011;21476;51.652;7.852;2022-12-18T11:29:30;15.13;;;8.43;;
35372;SDS011;21476;51.652;7.852;2022-12-18T11:34:53;12.82;;;8.15;;
35372;SDS011;21476;51.652;7.852;2022-12-18T11:37:40;23.08;;;8.60;;
35372;SDS011;21476;51.652;7.852;2022-12-18T11:40:18;16.15;;;8.88;;
35372;SDS011;21476;51.652;7.852;2022-12-18T11:42:53;16.67;;;9.20;;
35372;SDS011;21476;51.652;7.852;2022-12-18T11:45:28;13.02;;;8.60;;
35372;SDS011;21476;51.652;7.852;2022-12-18T11:51:02;18.02;;;9.90;;
35372;SDS011;21476;51.652;7.852;2022-12-18T11:53:36;17.55;;;9.68;;
35372;SDS011;21476;51.652;7.852;2022-12-18T11:56:26;16.90;;;8.75;;
35372;SDS011;21476;51.652;7.852;2022-12-18T12:02:00;17.85;;;9.75;;
35372;SDS011;21476;51.652;7.852;2022-12-18T12:10:40;17.10;;;9.43;;
35372;SDS011;21476;51.652;7.852;2022-12-18T12:13:15;18.35;;;10.30;;
35372;SDS011;21476;51.652;7.852;2022-12-18T12:18:42;18.90;;;11.20;;
35372;SDS011;21476;51.652;7.852;2022-12-18T12:29:09;18.60;;;11.35;;
35372;SDS011;21476;51.652;7.852;2022-12-18T12:39:56;20.10;;;11.60;;
35372;SDS011;21476;51.652;7.852;2022-12-18T12:42:29;17.33;;;10.73;;
35372;SDS011;21476;51.652;7.852;2022-12-18T12:45:29;18.02;;;10.52;;
35372;SDS011;21476;51.652;7.852;2022-12-18T12:48:01;19.67;;;9.50;;
35372;SDS011;21476;51.652;7.852;2022-12-18T12:50:30;19.27;;;10.38;;
35372;SDS011;21476;51.652;7.852;2022-12-18T12:52:59;18.60;;;11.40;;
35372;SDS011;21476;51.652;7.852;2022-12-18T12:55:30;17.92;;;10.32;;
35372;SDS011;21476;51.652;7.852;2022-12-18T12:58:02;16.20;;;10.70;;
35372;SDS011;21476;51.652;7.852;2022-12-18T13:03:43;22.58;;;11.10;;
35372;SDS011;21476;51.652;7.852;2022-12-18T13:06:12;22.50;;;11.30;;
35372;SDS011;21476;51.652;7.852;2022-12-18T13:08:59;17.55;;;10.82;;
35372;SDS011;21476;51.652;7.852;2022-12-18T13:11:41;15.23;;;9.68;;
35372;SDS011;21476;51.652;7.852;2022-12-18T13:14:29;18.73;;;11.40;;
35372;SDS011;21476;51.652;7.852;2022-12-18T13:20:19;16.95;;;11.48;;
35372;SDS011;21476;51.652;7.852;2022-12-18T13:22:46;19.02;;;10.55;;
35372;SDS011;21476;51.652;7.852;2022-12-18T13:25:27;17.73;;;10.38;;
35372;SDS011;21476;51.652;7.852;2022-12-18T13:30:45;22.38;;;10.48;;
35372;SDS011;21476;51.652;7.852;2022-12-18T13:38:22;18.30;;;10.85;;
35372;SDS011;21476;51.652;7.852;2022-12-18T13:48:41;19.90;;;11.57;;
35372;SDS011;21476;51.652;7.852;2022-12-18T13:51:19;19.88;;;12.65;;
35372;SDS011;21476;51.652;7.852;2022-12-18T13:53:53;24.05;;;13.13;;
35372;SDS011;21476;51.652;7.852;2022-12-18T13:56:26;19.52;;;12.35;;
35372;SDS011;21476;51.652;7.852;2022-12-18T14:02:39;21.75;;;13.10;;
35372;SDS011;21476;51.652;7.852;2022-12-18T14:04:44;15.15;;;9.88;;
35372;SDS011;21476;51.652;7.852;2022-12-18T14:07:14;21.33;;;12.93;;
35372;SDS011;21476;51.652;7.852;2022-12-18T14:09:59;18.50;;;10.93;;
35372;SDS011;21476;51.652;7.852;2022-12-18T14:17:41;22.02;;;13.35;;
35372;SDS011;21476;51.652;7.852;2022-12-18T14:20:12;19.02;;;11.73;;
35372;SDS011;21476;51.652;7.852;2022-12-18T14:22:42;17.73;;;10.27;;
35372;SDS011;21476;51.652;7.852;2022-12-18T14:27:37;26.10;;;17.85;;
35372;SDS011;21476;51.652;7.852;2022-12-18T14:36:01;16.80;;;10.40;;
35372;SDS011;21476;51.652;7.852;2022-12-18T14:43:29;20.58;;;11.35;;
35372;SDS011;21476;51.652;7.852;2022-12-18T14:45:57;23.75;;;13.10;;
35372;SDS011;21476;51.652;7.852;2022-12-18T14:48:30;23.90;;;13.18;;
35372;SDS011;21476;51.652;7.852;2022-12-18T14:51:02;22.27;;;12.85;;
35372;SDS011;21476;51.652;7.852;2022-12-18T14:53:36;21.48;;;13.07;;
35372;SDS011;21476;51.652;7.852;2022-12-18T14:56:03;20.67;;;12.65;;
35372;SDS011;21476;51.652;7.852;2022-12-18T14:58:43;18.90;;;11.73;;
35372;SDS011;21476;51.652;7.852;2022-12-18T15:01:17;20.50;;;12.70;;
35372;SDS011;21476;51.652;7.852;2022-12-18T15:03:54;23.98;;;12.35;;
35372;SDS011;21476;51.652;7.852;2022-12-18T15:06:26;26.58;;;13.68;;
35372;SDS011;21476;51.652;7.852;2022-12-18T15:08:55;19.55;;;12.23;;
35372;SDS011;21476;51.652;7.852;2022-12-18T15:11:28;20.88;;;11.32;;
35372;SDS011;21476;51.652;7.852;2022-12-18T15:13:58;19.45;;;11.27;;
35372;SDS011;21476;51.652;7.852;2022-12-18T15:16:25;23.02;;;13.27;;
35372;SDS011;21476;51.652;7.852;2022-12-18T15:18:51;23.80;;;13.70;;
35372;SDS011;21476;51.652;7.852;2022-12-18T15:21:18;18.75;;;12.43;;
35372;SDS011;21476;51.652;7.852;2022-12-18T15:26:18;20.13;;;10.95;;
35372;SDS011;21476;51.652;7.852;2022-12-18T15:33:40;16.52;;;10.63;;
35372;SDS011;21476;51.652;7.852;2022-12-18T15:36:28;17.98;;;10.20;;
35372;SDS011;21476;51.652;7.852;2022-12-18T15:39:01;23.50;;;10.73;;
35372;SDS011;21476;51.652;7.852;2022-12-18T15:41:27;17.10;;;9.60;;
35372;SDS011;21476;51.652;7.852;2022-12-18T15:43:53;18.30;;;9.77;;
35372;SDS011;21476;51.652;7.852;2022-12-18T15:46:19;19.58;;;10.32;;
35372;SDS011;21476;51.652;7.852;2022-12-18T15:48:52;17.42;;;10.88;;
35372;SDS011;21476;51.652;7.852;2022-12-18T15:51:28;20.35;;;10.35;;
35372;SDS011;21476;51.652;7.852;2022-12-18T15:54:00;19.45;;;10.80;;
35372;SDS011;21476;51.652;7.852;2022-12-18T15:56:29;18.80;;;10.57;;
35372;SDS011;21476;51.652;7.852;2022-12-18T15:59:14;15.70;;;9.55;;
35372;SDS011;21476;51.652;7.852;2022-12-18T16:01:43;21.88;;;10.48;;
35372;SDS011;21476;51.652;7.852;2022-12-18T16:04:11;14.52;;;8.95;;
35372;SDS011;21476;51.652;7.852;2022-12-18T16:06:38;16.73;;;9.23;;
35372;SDS011;21476;51.652;7.852;2022-12-18T16:09:05;17.83;;;9.00;;
35372;SDS011;21476;51.652;7.852;2022-12-18T16:11:31;14.63;;;8.18;;
35372;SDS011;21476;51.652;7.852;2022-12-18T16:14:23;14.75;;;9.43;;
35372;SDS011;21476;51.652;7.852;2022-12-18T16:17:03;21.88;;;12.55;;
35372;SDS011;21476;51.652;7.852;2022-12-18T16:19:33;19.20;;;11.35;;
35372;SDS011;21476;51.652;7.852;2022-12-18T16:21:59;21.33;;;10.82;;
35372;SDS011;21476;51.652;7.852;2022-12-18T16:24:26;19.42;;;10.98;;
35372;SDS011;21476;51.652;7.852;2022-12-18T16:26:53;21.27;;;11.20;;
35372;SDS011;21476;51.652;7.852;2022-12-18T16:29:20;18.45;;;10.50;;
35372;SDS011;21476;51.652;7.852;2022-12-18T16:31:49;14.82;;;9.88;;
35372;SDS011;21476;51.652;7.852;2022-12-18T16:37:14;15.43;;;9.10;;
35372;SDS011;21476;51.652;7.852;2022-12-18T16:39:39;17.42;;;10.10;;
35372;SDS011;21476;51.652;7.852;2022-12-18T16:42:08;23.95;;;10.90;;
35372;SDS011;21476;51.652;7.852;2022-12-18T16:44:41;16.88;;;9.23;;
35372;SDS011;21476;51.652;7.852;2022-12-18T16:47:07;19.45;;;9.75;;
35372;SDS011;21476;51.652;7.852;2022-12-18T16:49:33;18.05;;;10.10;;
35372;SDS011;21476;51.652;7.852;2022-12-18T16:51:59;21.27;;;9.88;;
35372;SDS011;21476;51.652;7.852;2022-12-18T16:54:24;22.27;;;10.60;;
35372;SDS011;21476;51.652;7.852;2022-12-18T16:56:50;20.60;;;10.68;;
35372;SDS011;21476;51.652;7.852;2022-12-18T16:59:16;18.50;;;10.88;;
35372;SDS011;21476;51.652;7.852;2022-12-18T17:01:42;18.25;;;10.35;;
35372;SDS011;21476;51.652;7.852;2022-12-18T17:04:08;22.25;;;11.80;;
35372;SDS011;21476;51.652;7.852;2022-12-18T17:06:35;21.75;;;13.02;;
35372;SDS011;21476;51.652;7.852;2022-12-18T17:09:06;28.80;;;15.48;;
35372;SDS011;21476;51.652;7.852;2022-12-18T17:11:33;26.75;;;16.25;;